New Egypt, New Jersey
Current Conditions -  °F | °C
As of 5:58 AM on Friday 31 Oct 2014 (Local Time) from KWRI Reporting Station
Clear Clear  
Wind Chill: 32°   Ceiling: Unl
Heat Index: 37°   Visibility: 10mi
Dew Point: 32°   Wind: 6mph
Humidity: 82%   Direction: 340°NNW
Pressure: 29.99"   Gusts: NA
Location:  40.07°N, 74.53°W
Report Text: KWRI 310958Z AUTO 34005KT 10SM CLR 03/00 A2999 RMK AO2 SLP159 T00261002
Loading
Personal Weather Stations






























Interactive Weather Map
Tropical Storm Tracking
New forecast layout! Learn more

10-Day Weather Forecast

Advertisements
Track Severe Weather on mobile